createdAt,value
2023-03-19T00:00:29.532Z,101249.56
2023-03-19T00:02:56.970Z,101243.13
2023-03-19T00:05:24.436Z,101242.47
2023-03-19T00:07:51.693Z,101235.25
2023-03-19T00:10:19.036Z,101231.34
2023-03-19T00:12:46.465Z,101241.72
2023-03-19T00:15:15.362Z,101238.50
2023-03-19T00:17:43.204Z,101235.88
2023-03-19T00:20:12.395Z,101229.31
2023-03-19T00:22:40.137Z,101226.59
2023-03-19T00:25:09.981Z,101245.56
2023-03-19T00:27:38.321Z,101233.00
2023-03-19T00:30:07.292Z,101238.13
2023-03-19T00:32:35.749Z,101244.97
2023-03-19T00:35:06.304Z,101243.69
2023-03-19T00:37:34.444Z,101242.56
2023-03-19T00:40:02.060Z,101237.16
2023-03-19T00:42:30.207Z,101233.03
2023-03-19T00:44:57.563Z,101235.44
2023-03-19T00:47:26.011Z,101234.84
2023-03-19T00:49:53.286Z,101241.97
2023-03-19T00:52:20.856Z,101239.69
2023-03-19T00:54:48.175Z,101237.06
2023-03-19T00:57:15.631Z,101242.19
2023-03-19T00:59:42.964Z,101231.53
2023-03-19T01:02:10.807Z,101234.94
2023-03-19T01:04:38.256Z,101230.91
2023-03-19T01:07:06.672Z,101221.88
2023-03-19T01:09:35.953Z,101212.06
2023-03-19T01:12:04.841Z,101210.78
2023-03-19T01:14:33.513Z,101202.53
2023-03-19T01:17:01.400Z,101197.38
2023-03-19T01:19:30.095Z,101201.88
2023-03-19T01:21:57.890Z,101204.63
2023-03-19T01:24:29.025Z,101211.97
2023-03-19T01:26:56.354Z,101218.09
2023-03-19T01:29:31.009Z,101210.34
2023-03-19T01:32:02.185Z,101213.25
2023-03-19T01:35:01.825Z,101210.47
2023-03-19T01:37:29.233Z,101201.38
2023-03-19T01:39:56.782Z,101194.22
2023-03-19T01:42:24.169Z,101190.56
2023-03-19T01:45:31.600Z,101180.72
2023-03-19T01:48:25.519Z,101184.38
2023-03-19T01:51:02.672Z,101171.69
2023-03-19T01:54:10.477Z,101177.94
2023-03-19T01:57:11.420Z,101185.06
2023-03-19T01:59:57.684Z,101185.19
2023-03-19T02:02:31.345Z,101194.47
2023-03-19T02:05:09.455Z,101186.59
2023-03-19T02:07:39.623Z,101177.53
2023-03-19T02:10:10.323Z,101182.81
2023-03-19T02:12:38.577Z,101176.94
2023-03-19T02:15:07.285Z,101187.53
2023-03-19T02:17:34.789Z,101189.34
2023-03-19T02:20:06.835Z,101188.34
2023-03-19T02:22:38.900Z,101177.56
2023-03-19T02:25:21.764Z,101161.28
2023-03-19T02:27:48.960Z,101183.72
2023-03-19T02:30:33.715Z,101178.28
2023-03-19T02:33:06.303Z,101179.97
2023-03-19T02:35:36.189Z,101180.50
2023-03-19T02:38:05.270Z,101186.22
2023-03-19T02:40:38.481Z,101184.94
2023-03-19T02:43:06.320Z,101192.47
2023-03-19T02:45:33.700Z,101194.38
2023-03-19T02:48:01.148Z,101190.66
2023-03-19T02:50:28.597Z,101192.06
2023-03-19T02:52:56.391Z,101198.78
2023-03-19T02:55:23.666Z,101190.94
2023-03-19T02:57:51.106Z,101196.59
2023-03-19T03:00:20.897Z,101196.28
2023-03-19T03:02:48.365Z,101200.19
2023-03-19T03:05:15.651Z,101196.66
2023-03-19T03:07:46.103Z,101197.56
2023-03-19T03:10:13.793Z,101191.94
2023-03-19T03:12:41.545Z,101196.47
2023-03-19T03:15:09.654Z,101197.19
2023-03-19T03:17:38.762Z,101202.34
2023-03-19T03:20:07.853Z,101198.81
2023-03-19T03:22:35.781Z,101196.91
2023-03-19T03:25:03.223Z,101188.84
2023-03-19T03:27:31.457Z,101188.84
2023-03-19T03:29:59.008Z,101189.84
2023-03-19T03:32:27.512Z,101197.41
2023-03-19T03:34:54.893Z,101204.34
2023-03-19T03:37:22.740Z,101201.31
2023-03-19T03:39:50.041Z,101207.56
2023-03-19T03:42:19.212Z,101205.94
2023-03-19T03:44:46.804Z,101200.22
2023-03-19T03:47:14.684Z,101200.09
2023-03-19T03:49:42.042Z,101203.22
2023-03-19T03:52:09.854Z,101206.88
2023-03-19T03:54:37.195Z,101209.38
2023-03-19T03:57:04.767Z,101209.78
2023-03-19T03:59:32.532Z,101212.59
2023-03-19T04:01:59.970Z,101212.88
2023-03-19T04:04:27.702Z,101216.31
2023-03-19T04:06:55.041Z,101228.88
2023-03-19T04:09:33.171Z,101222.94
2023-03-19T04:12:01.067Z,101231.03
2023-03-19T04:14:28.389Z,101229.56
2023-03-19T04:16:56.966Z,101225.03
2023-03-19T04:19:24.728Z,101232.44
2023-03-19T04:21:52.128Z,101237.56
2023-03-19T04:24:20.030Z,101237.09
2023-03-19T04:26:48.563Z,101235.66
2023-03-19T04:29:16.755Z,101240.31
2023-03-19T04:31:45.419Z,101239.44
2023-03-19T04:34:13.063Z,101244.16
2023-03-19T04:36:40.655Z,101248.47
2023-03-19T04:39:08.136Z,101253.53
2023-03-19T04:41:35.877Z,101267.25
2023-03-19T04:44:24.301Z,101260.63
2023-03-19T04:46:51.703Z,101273.78
2023-03-19T04:49:21.087Z,101270.41
2023-03-19T04:51:50.836Z,101269.66
2023-03-19T04:54:18.683Z,101271.72
2023-03-19T04:56:46.054Z,101275.22
2023-03-19T04:59:13.540Z,101278.53
2023-03-19T05:01:41.961Z,101274.41
2023-03-19T05:04:12.324Z,101285.28
2023-03-19T05:06:39.762Z,101284.97
2023-03-19T05:09:07.715Z,101287.59
2023-03-19T05:11:35.565Z,101285.19
2023-03-19T05:14:05.838Z,101289.75
2023-03-19T05:16:48.750Z,101282.72
2023-03-19T05:19:16.558Z,101275.69
2023-03-19T05:21:44.270Z,101280.31
2023-03-19T05:24:12.363Z,101286.19
2023-03-19T05:26:40.053Z,101298.44
2023-03-19T05:29:26.680Z,101300.75
2023-03-19T05:32:26.066Z,101301.63
2023-03-19T05:34:54.442Z,101299.81
2023-03-19T05:37:22.016Z,101302.28
2023-03-19T05:39:55.993Z,101302.00
2023-03-19T05:42:23.845Z,101307.72
2023-03-19T05:44:51.284Z,101311.94
2023-03-19T05:47:23.766Z,101315.44
2023-03-19T05:49:54.687Z,101321.94
2023-03-19T05:52:22.254Z,101323.28
2023-03-19T05:54:50.776Z,101317.31
2023-03-19T05:57:44.657Z,101313.22
2023-03-19T06:00:21.233Z,101307.25
2023-03-19T06:02:48.699Z,101314.50
2023-03-19T06:05:41.644Z,101307.47
2023-03-19T06:08:19.621Z,101316.66
2023-03-19T06:11:01.368Z,101328.16
2023-03-19T06:13:29.156Z,101324.22
2023-03-19T06:15:59.279Z,101323.25
2023-03-19T06:18:36.630Z,101322.72
2023-03-19T06:21:09.495Z,101328.06
2023-03-19T06:23:37.517Z,101335.56
2023-03-19T06:26:06.977Z,101331.53
2023-03-19T06:28:42.917Z,101334.13
2023-03-19T06:31:10.358Z,101329.03
2023-03-19T06:33:57.145Z,101330.38
2023-03-19T06:36:30.341Z,101327.88
2023-03-19T06:38:57.853Z,101328.94
2023-03-19T06:41:25.198Z,101334.91
2023-03-19T06:43:54.462Z,101336.41
2023-03-19T06:46:22.440Z,101340.38
2023-03-19T06:48:49.871Z,101349.31
2023-03-19T06:51:17.359Z,101358.91
2023-03-19T06:53:44.695Z,101353.97
2023-03-19T06:56:12.464Z,101353.97
2023-03-19T06:58:39.809Z,101360.53
2023-03-19T07:01:07.611Z,101349.94
2023-03-19T07:03:34.938Z,101356.41
2023-03-19T07:06:02.719Z,101362.22
2023-03-19T07:08:30.241Z,101359.91
2023-03-19T07:10:57.593Z,101349.69
2023-03-19T07:13:24.876Z,101366.38
2023-03-19T07:15:52.237Z,101358.47
2023-03-19T07:18:19.480Z,101357.28
2023-03-19T07:20:46.835Z,101352.59
2023-03-19T07:23:14.193Z,101343.94
2023-03-19T07:25:41.649Z,101350.50
2023-03-19T07:28:08.956Z,101355.59
2023-03-19T07:30:38.200Z,101360.75
2023-03-19T07:33:07.405Z,101368.75
2023-03-19T07:35:34.999Z,101372.47
2023-03-19T07:38:02.832Z,101383.22
2023-03-19T07:40:30.515Z,101372.06
2023-03-19T07:42:57.860Z,101381.50
2023-03-19T07:45:25.516Z,101384.25
2023-03-19T07:47:52.945Z,101383.72
2023-03-19T07:50:20.443Z,101375.34
2023-03-19T07:52:49.134Z,101375.56
2023-03-19T07:55:16.616Z,101375.44
2023-03-19T07:57:43.934Z,101382.22
2023-03-19T08:00:12.069Z,101382.19
2023-03-19T08:02:45.536Z,101375.44
2023-03-19T08:05:13.252Z,101375.13
2023-03-19T08:07:41.188Z,101373.53
2023-03-19T08:10:09.295Z,101376.25
2023-03-19T08:12:41.029Z,101375.97
2023-03-19T08:15:11.079Z,101372.09
2023-03-19T08:17:38.950Z,101363.38
2023-03-19T08:20:09.578Z,101367.81
2023-03-19T08:22:38.516Z,101369.41
2023-03-19T08:25:07.218Z,101379.91
2023-03-19T08:27:36.096Z,101375.72
2023-03-19T08:30:08.798Z,101382.09
2023-03-19T08:32:37.129Z,101382.72
2023-03-19T08:35:06.234Z,101380.34
2023-03-19T08:37:33.886Z,101381.19
2023-03-19T08:40:01.334Z,101382.16
2023-03-19T08:42:29.162Z,101389.63
2023-03-19T08:44:56.579Z,101388.75
2023-03-19T08:47:24.542Z,101389.91
2023-03-19T08:49:52.416Z,101390.44
2023-03-19T08:52:20.566Z,101393.50
2023-03-19T08:54:47.960Z,101403.00
2023-03-19T08:57:15.603Z,101393.28
2023-03-19T08:59:43.171Z,101393.03
2023-03-19T09:02:12.402Z,101400.09
2023-03-19T09:04:44.116Z,101398.66
2023-03-19T09:07:15.579Z,101400.72
2023-03-19T09:09:44.255Z,101395.72
2023-03-19T09:12:14.344Z,101400.59
2023-03-19T09:14:41.806Z,101400.97
2023-03-19T09:17:09.728Z,101406.66
2023-03-19T09:19:37.544Z,101400.94
2023-03-19T09:22:05.379Z,101407.41
2023-03-19T09:24:32.743Z,101403.09
2023-03-19T09:27:00.049Z,101409.81
2023-03-19T09:29:27.453Z,101405.34
2023-03-19T09:31:54.729Z,101407.38
2023-03-19T09:34:22.263Z,101413.16
2023-03-19T09:36:49.650Z,101420.06
2023-03-19T09:39:16.979Z,101419.13
2023-03-19T09:41:53.411Z,101417.38
2023-03-19T09:44:43.304Z,101417.06
2023-03-19T09:47:23.954Z,101421.44
2023-03-19T09:49:53.407Z,101422.31
2023-03-19T09:52:29.068Z,101415.63
2023-03-19T09:55:00.854Z,101421.22
2023-03-19T09:57:29.915Z,101420.81
2023-03-19T09:59:57.315Z,101418.41
2023-03-19T10:02:43.009Z,101414.03
2023-03-19T10:05:25.852Z,101416.00
2023-03-19T10:08:02.678Z,101405.03
2023-03-19T10:10:33.016Z,101416.00
2023-03-19T10:13:19.935Z,101410.13
2023-03-19T10:15:50.693Z,101400.09
2023-03-19T10:18:21.889Z,101405.22
2023-03-19T10:21:21.995Z,101400.94
2023-03-19T10:24:03.478Z,101399.75
2023-03-19T10:26:35.527Z,101402.75
2023-03-19T10:29:08.282Z,101403.06
2023-03-19T10:31:53.044Z,101381.78
2023-03-19T10:34:35.165Z,101388.63
2023-03-19T10:37:13.164Z,101394.78
2023-03-19T10:39:43.487Z,101387.91
2023-03-19T10:42:16.612Z,101396.56
2023-03-19T10:44:59.203Z,101381.50
2023-03-19T10:47:26.677Z,101370.53
2023-03-19T10:49:56.692Z,101370.97
2023-03-19T10:52:30.788Z,101375.84
2023-03-19T10:55:25.740Z,101377.44
2023-03-19T10:58:03.266Z,101371.41
2023-03-19T11:00:33.370Z,101365.78
2023-03-19T11:03:04.781Z,101361.88
2023-03-19T11:05:34.961Z,101363.84
2023-03-19T11:08:05.933Z,101356.72
2023-03-19T11:10:36.066Z,101357.13
2023-03-19T11:13:05.159Z,101348.31
2023-03-19T11:15:38.104Z,101343.47
2023-03-19T11:18:22.949Z,101349.16
2023-03-19T11:20:58.198Z,101341.44
2023-03-19T11:23:31.625Z,101342.63
2023-03-19T11:26:02.022Z,101326.66
2023-03-19T11:28:33.708Z,101338.88
2023-03-19T11:31:27.132Z,101333.38
2023-03-19T11:34:00.869Z,101325.16
2023-03-19T11:36:31.078Z,101319.09
2023-03-19T11:39:04.743Z,101313.28
2023-03-19T11:41:57.650Z,101312.09
2023-03-19T11:44:49.780Z,101319.69
2023-03-19T11:48:02.504Z,101313.41
2023-03-19T11:50:50.397Z,101299.09
2023-03-19T11:53:46.888Z,101305.19
2023-03-19T11:56:35.770Z,101298.72
2023-03-19T11:59:19.760Z,101283.50
2023-03-19T12:02:18.047Z,101284.22
2023-03-19T12:05:06.678Z,101274.25
2023-03-19T12:07:49.640Z,101267.31
2023-03-19T12:10:23.561Z,101258.09
2023-03-19T12:13:23.130Z,101252.56
2023-03-19T12:16:10.579Z,101260.81
2023-03-19T12:19:12.405Z,101262.63
2023-03-19T12:21:54.921Z,101264.84
2023-03-19T12:24:31.162Z,101260.84
2023-03-19T12:27:06.164Z,101262.88
2023-03-19T12:29:45.413Z,101265.31
2023-03-19T12:32:23.730Z,101260.38
2023-03-19T12:34:55.323Z,101264.41
2023-03-19T12:37:27.638Z,101269.97
2023-03-19T12:40:04.741Z,101258.84
2023-03-19T12:42:37.592Z,101258.38
2023-03-19T12:45:31.009Z,101245.59
2023-03-19T12:48:10.885Z,101252.84
2023-03-19T12:50:42.550Z,101250.69
2023-03-19T12:53:23.128Z,101245.94
2023-03-19T12:55:56.913Z,101246.91
2023-03-19T12:58:51.741Z,101230.28
2023-03-19T13:01:26.323Z,101235.63
2023-03-19T13:04:11.083Z,101228.88
2023-03-19T13:06:49.738Z,101230.50
2023-03-19T13:09:32.089Z,101237.19
2023-03-19T13:12:10.673Z,101223.81
2023-03-19T13:14:53.250Z,101221.97
2023-03-19T13:17:34.389Z,101226.69
2023-03-19T13:20:14.169Z,101220.09
2023-03-19T13:22:45.041Z,101218.44
2023-03-19T13:25:18.011Z,101216.69
2023-03-19T13:27:54.276Z,101213.59
2023-03-19T13:30:23.001Z,101212.34
2023-03-19T13:32:54.639Z,101215.47
2023-03-19T13:35:36.376Z,101207.59
2023-03-19T13:38:17.672Z,101209.16
2023-03-19T13:40:56.678Z,101209.59
2023-03-19T13:43:30.169Z,101208.00
2023-03-19T13:46:12.124Z,101207.28
2023-03-19T13:48:45.272Z,101209.03
2023-03-19T13:51:12.487Z,101206.31
2023-03-19T13:54:11.743Z,101200.94
2023-03-19T13:57:08.738Z,101196.50
2023-03-19T13:59:43.677Z,101210.47
2023-03-19T14:02:24.056Z,101194.03
2023-03-19T14:05:04.152Z,101193.25
2023-03-19T14:07:42.601Z,101189.38
2023-03-19T14:10:21.463Z,101193.03
2023-03-19T14:12:49.954Z,101192.59
2023-03-19T14:15:23.443Z,101183.44
2023-03-19T14:17:51.038Z,101187.00
2023-03-19T14:20:24.016Z,101183.81
2023-03-19T14:22:56.397Z,101178.56
2023-03-19T14:25:47.973Z,101175.94
2023-03-19T14:28:18.510Z,101180.91
2023-03-19T14:30:50.107Z,101179.63
2023-03-19T14:33:28.347Z,101176.19
2023-03-19T14:35:57.140Z,101181.69
2023-03-19T14:39:03.003Z,101178.41
2023-03-19T14:41:35.186Z,101162.75
2023-03-19T14:44:08.488Z,101167.66
2023-03-19T14:46:47.817Z,101160.72
2023-03-19T14:49:37.014Z,101165.28
2023-03-19T14:52:17.872Z,101169.72
2023-03-19T14:54:52.372Z,101165.91
2023-03-19T14:57:25.896Z,101173.69
2023-03-19T14:59:54.796Z,101169.16
2023-03-19T15:02:43.631Z,101164.78
2023-03-19T15:05:26.262Z,101166.34
2023-03-19T15:07:57.756Z,101170.38
2023-03-19T15:10:29.048Z,101164.56
2023-03-19T15:13:27.943Z,101168.53
2023-03-19T15:16:04.224Z,101167.66
2023-03-19T15:18:31.872Z,101177.81
2023-03-19T15:20:59.393Z,101163.06
2023-03-19T15:23:28.673Z,101173.63
2023-03-19T15:26:04.476Z,101176.97
2023-03-19T15:28:37.584Z,101170.06
2023-03-19T15:31:26.781Z,101173.44
2023-03-19T15:33:53.968Z,101170.03
2023-03-19T15:36:33.727Z,101174.28
2023-03-19T15:39:04.900Z,101182.44
2023-03-19T15:41:35.903Z,101180.91
2023-03-19T15:44:08.312Z,101178.41
2023-03-19T15:46:38.176Z,101182.06
2023-03-19T15:49:23.929Z,101179.91
2023-03-19T15:51:55.102Z,101177.25
2023-03-19T15:54:22.914Z,101181.03
2023-03-19T15:56:52.248Z,101180.00
2023-03-19T15:59:25.122Z,101174.97
2023-03-19T16:01:56.659Z,101180.91
2023-03-19T16:04:27.511Z,101193.72
2023-03-19T16:06:56.650Z,101183.88
2023-03-19T16:09:25.296Z,101184.59
2023-03-19T16:11:54.483Z,101186.06
2023-03-19T16:14:31.169Z,101178.19
2023-03-19T16:17:03.918Z,101186.97
2023-03-19T16:19:39.820Z,101188.34
2023-03-19T16:22:16.939Z,101192.03
2023-03-19T16:24:46.748Z,101194.63
2023-03-19T16:27:20.002Z,101197.13
2023-03-19T16:29:49.455Z,101210.38
2023-03-19T16:32:37.209Z,101213.69
2023-03-19T16:35:12.411Z,101223.06
2023-03-19T16:37:53.050Z,101219.19
2023-03-19T16:40:20.791Z,101222.22
2023-03-19T16:42:49.574Z,101219.81
2023-03-19T16:45:16.908Z,101223.09
2023-03-19T16:47:52.613Z,101225.72
2023-03-19T16:50:22.789Z,101234.63
2023-03-19T16:52:50.663Z,101236.31
2023-03-19T16:55:32.628Z,101238.72
2023-03-19T16:58:03.121Z,101240.97
2023-03-19T17:00:32.721Z,101238.22
2023-03-19T17:03:00.697Z,101253.56
2023-03-19T17:05:29.546Z,101253.06
2023-03-19T17:07:57.088Z,101259.69
2023-03-19T17:10:27.649Z,101245.78
2023-03-19T17:12:56.408Z,101254.66
2023-03-19T17:15:35.419Z,101250.34
2023-03-19T17:18:08.183Z,101252.41
2023-03-19T17:20:38.117Z,101255.16
2023-03-19T17:23:11.545Z,101252.13
2023-03-19T17:25:39.298Z,101253.03
2023-03-19T17:28:06.817Z,101259.84
2023-03-19T17:30:34.524Z,101256.97
2023-03-19T17:33:02.154Z,101260.34
2023-03-19T17:35:48.227Z,101263.75
2023-03-19T17:38:18.155Z,101269.44
2023-03-19T17:40:46.413Z,101265.75
2023-03-19T17:43:14.184Z,101264.47
2023-03-19T17:45:46.129Z,101265.16
2023-03-19T17:48:19.111Z,101264.22
2023-03-19T17:50:46.521Z,101274.69
2023-03-19T17:53:14.598Z,101273.28
2023-03-19T17:55:41.993Z,101272.66
2023-03-19T17:58:21.075Z,101273.84
2023-03-19T18:00:50.567Z,101276.13
2023-03-19T18:03:21.134Z,101278.28
2023-03-19T18:05:50.631Z,101278.94
2023-03-19T18:08:21.082Z,101289.69
2023-03-19T18:10:48.401Z,101291.97
2023-03-19T18:13:16.155Z,101280.06
2023-03-19T18:15:45.272Z,101289.16
2023-03-19T18:18:19.627Z,101293.59
2023-03-19T18:20:48.265Z,101291.53
2023-03-19T18:23:16.225Z,101294.78
2023-03-19T18:25:44.982Z,101296.25
2023-03-19T18:28:12.432Z,101288.91
2023-03-19T18:30:41.403Z,101312.25
2023-03-19T18:33:16.792Z,101311.28
2023-03-19T18:35:45.715Z,101310.34
2023-03-19T18:38:16.770Z,101314.34
2023-03-19T18:40:44.374Z,101314.69
2023-03-19T18:43:13.526Z,101319.34
2023-03-19T18:45:45.425Z,101314.03
2023-03-19T18:48:25.735Z,101317.28
2023-03-19T18:50:54.805Z,101325.13
2023-03-19T18:53:22.770Z,101314.38
2023-03-19T18:55:50.984Z,101317.25
2023-03-19T18:58:28.411Z,101326.13
2023-03-19T19:00:55.947Z,101317.13
2023-03-19T19:03:29.440Z,101321.28
2023-03-19T19:05:56.895Z,101321.78
2023-03-19T19:08:26.700Z,101321.94
2023-03-19T19:10:56.660Z,101329.31
2023-03-19T19:13:29.503Z,101323.88
2023-03-19T19:15:56.898Z,101329.66
2023-03-19T19:18:27.311Z,101330.00
2023-03-19T19:20:54.781Z,101330.13
2023-03-19T19:23:22.546Z,101325.31
2023-03-19T19:25:55.245Z,101335.75
2023-03-19T19:28:36.703Z,101337.84
2023-03-19T19:31:05.364Z,101345.38
2023-03-19T19:33:35.530Z,101340.72
2023-03-19T19:36:04.433Z,101347.28
2023-03-19T19:38:31.895Z,101346.19
2023-03-19T19:41:00.365Z,101346.81
2023-03-19T19:43:31.350Z,101338.50
2023-03-19T19:45:59.003Z,101344.09
2023-03-19T19:48:29.163Z,101336.22
2023-03-19T19:50:57.111Z,101334.63
2023-03-19T19:53:26.291Z,101337.06
2023-03-19T19:55:53.818Z,101331.25
2023-03-19T19:58:23.591Z,101333.66
2023-03-19T20:01:02.877Z,101331.72
2023-03-19T20:03:32.643Z,101335.13
2023-03-19T20:06:01.504Z,101334.78
2023-03-19T20:08:29.192Z,101342.66
2023-03-19T20:10:57.223Z,101340.09
2023-03-19T20:13:37.857Z,101343.13
2023-03-19T20:16:05.753Z,101353.59
2023-03-19T20:18:35.769Z,101346.66
2023-03-19T20:21:04.302Z,101346.34
2023-03-19T20:23:31.993Z,101349.88
2023-03-19T20:25:59.771Z,101352.13
2023-03-19T20:28:32.809Z,101354.84
2023-03-19T20:31:02.731Z,101358.88
2023-03-19T20:33:31.457Z,101355.19
2023-03-19T20:35:58.940Z,101354.22
2023-03-19T20:38:27.450Z,101360.47
2023-03-19T20:40:58.914Z,101360.50
2023-03-19T20:43:35.719Z,101360.47
2023-03-19T20:46:06.410Z,101357.56
2023-03-19T20:48:34.845Z,101352.25
2023-03-19T20:51:03.090Z,101354.69
2023-03-19T20:53:30.981Z,101346.31
2023-03-19T20:56:00.121Z,101350.34
2023-03-19T20:58:31.365Z,101351.16
2023-03-19T21:01:00.377Z,101349.53
2023-03-19T21:03:31.298Z,101352.06
2023-03-19T21:06:05.377Z,101356.06
2023-03-19T21:08:39.443Z,101358.31
2023-03-19T21:11:11.512Z,101356.75
2023-03-19T21:13:38.937Z,101352.41
2023-03-19T21:16:07.090Z,101353.19
2023-03-19T21:18:34.550Z,101355.91
2023-03-19T21:21:02.200Z,101359.25
2023-03-19T21:23:37.413Z,101352.03
2023-03-19T21:26:14.081Z,101347.72
2023-03-19T21:28:42.088Z,101348.84
2023-03-19T21:31:24.085Z,101346.41
2023-03-19T21:33:56.439Z,101349.16
2023-03-19T21:36:25.644Z,101350.28
2023-03-19T21:38:53.178Z,101352.16
2023-03-19T21:41:24.946Z,101351.88
2023-03-19T21:43:57.755Z,101352.63
2023-03-19T21:46:27.596Z,101351.34
2023-03-19T21:48:56.060Z,101348.13
2023-03-19T21:51:25.247Z,101350.66
2023-03-19T21:53:52.715Z,101350.94
2023-03-19T21:56:32.632Z,101354.00
2023-03-19T21:59:02.313Z,101360.22
2023-03-19T22:01:29.894Z,101343.16
2023-03-19T22:03:58.107Z,101347.00
2023-03-19T22:06:25.805Z,101340.13
2023-03-19T22:08:54.142Z,101340.47
2023-03-19T22:11:28.032Z,101336.63
2023-03-19T22:14:17.900Z,101341.97
2023-03-19T22:16:46.551Z,101336.50
2023-03-19T22:19:15.918Z,101352.19
2023-03-19T22:21:43.566Z,101348.59
2023-03-19T22:24:11.191Z,101338.09
2023-03-19T22:26:40.889Z,101346.91
2023-03-19T22:29:16.573Z,101338.88
2023-03-19T22:31:44.565Z,101333.97
2023-03-19T22:34:16.991Z,101336.94
2023-03-19T22:36:44.448Z,101330.22
2023-03-19T22:39:12.565Z,101326.75
2023-03-19T22:41:45.884Z,101317.78
2023-03-19T22:44:25.972Z,101326.72
2023-03-19T22:46:54.840Z,101325.13
2023-03-19T22:49:22.428Z,101321.13
2023-03-19T22:51:49.701Z,101309.88
2023-03-19T22:54:17.186Z,101309.88
2023-03-19T22:56:44.542Z,101311.06
2023-03-19T22:59:13.741Z,101308.38
2023-03-19T23:01:44.369Z,101306.59
2023-03-19T23:04:38.712Z,101310.75
2023-03-19T23:07:06.250Z,101310.75
2023-03-19T23:09:37.962Z,101308.03
2023-03-19T23:12:07.335Z,101310.22
2023-03-19T23:14:36.660Z,101310.50
2023-03-19T23:17:14.591Z,101313.44
2023-03-19T23:19:42.177Z,101317.59
2023-03-19T23:22:16.149Z,101307.03
2023-03-19T23:24:44.733Z,101306.56
2023-03-19T23:27:23.090Z,101309.97
2023-03-19T23:29:51.197Z,101312.16
2023-03-19T23:32:18.552Z,101311.34
2023-03-19T23:34:59.180Z,101310.22
2023-03-19T23:37:28.986Z,101296.13
2023-03-19T23:39:57.781Z,101300.97
2023-03-19T23:42:28.962Z,101294.72
2023-03-19T23:44:59.344Z,101295.53
2023-03-19T23:47:29.305Z,101297.88
2023-03-19T23:49:57.193Z,101294.34
2023-03-19T23:52:24.524Z,101305.38
2023-03-19T23:54:52.547Z,101301.63
2023-03-19T23:57:21.993Z,101304.63
2023-03-19T23:59:52.053Z,101302.00
